createdAt,value
2022-12-03T00:04:15.844Z,24.93
2022-12-03T00:08:18.884Z,25.57
2022-12-03T00:12:21.957Z,25.27
2022-12-03T00:16:26.458Z,24.13
2022-12-03T00:20:29.607Z,25.70
2022-12-03T00:24:32.654Z,24.60
2022-12-03T00:29:09.536Z,26.93
2022-12-03T00:33:13.925Z,24.47
2022-12-03T00:37:17.042Z,24.37
2022-12-03T00:41:20.124Z,23.47
2022-12-03T00:45:23.144Z,25.33
2022-12-03T00:49:27.650Z,27.20
2022-12-03T00:53:30.675Z,27.00
2022-12-03T00:57:33.645Z,26.20
2022-12-03T01:01:36.723Z,25.70
2022-12-03T01:05:41.155Z,25.70
2022-12-03T01:09:44.168Z,25.70
2022-12-03T01:13:47.177Z,24.40
2022-12-03T01:17:50.190Z,25.50
2022-12-03T01:21:55.634Z,29.83
2022-12-03T01:26:29.572Z,30.87
2022-12-03T01:30:53.210Z,28.67
2022-12-03T01:34:57.219Z,32.07
2022-12-03T01:39:01.860Z,31.87
2022-12-03T01:43:36.019Z,24.47
2022-12-03T01:47:39.496Z,28.27
2022-12-03T01:51:42.619Z,23.00
2022-12-03T01:55:49.087Z,28.17
2022-12-03T01:59:53.297Z,25.47
2022-12-03T02:04:27.016Z,25.57
2022-12-03T02:08:34.930Z,24.83
2022-12-03T02:12:42.964Z,23.87
2022-12-03T02:16:46.284Z,27.00
2022-12-03T02:20:58.832Z,29.80
2022-12-03T02:25:13.356Z,25.17
2022-12-03T02:29:41.132Z,28.37
2022-12-03T02:33:44.416Z,29.43
2022-12-03T02:37:49.471Z,30.47
2022-12-03T02:42:11.494Z,28.43
2022-12-03T02:46:16.551Z,30.33
2022-12-03T02:50:22.700Z,29.83
2022-12-03T02:54:25.971Z,32.50
2022-12-03T02:58:32.111Z,31.27
2022-12-03T03:02:37.353Z,29.97
2022-12-03T03:06:40.593Z,30.13
2022-12-03T03:10:45.068Z,29.53
2022-12-03T03:14:49.504Z,26.43
2022-12-03T03:18:52.754Z,29.50
2022-12-03T03:22:56.082Z,29.33
2022-12-03T03:26:59.290Z,27.33
2022-12-03T03:31:05.123Z,27.00
2022-12-03T03:35:09.886Z,24.00
2022-12-03T03:39:13.560Z,25.53
2022-12-03T03:43:16.807Z,27.50
2022-12-03T03:47:21.441Z,26.37
2022-12-03T03:51:24.548Z,26.17
2022-12-03T03:55:28.004Z,25.23
2022-12-03T03:59:31.303Z,25.43
2022-12-03T04:03:35.983Z,24.83
2022-12-03T04:07:39.057Z,25.93
2022-12-03T04:12:00.026Z,25.33
2022-12-03T04:16:03.214Z,24.93
2022-12-03T04:20:08.549Z,27.57
2022-12-03T04:24:13.366Z,24.93
2022-12-03T04:28:33.772Z,25.83
2022-12-03T04:32:54.161Z,26.43
2022-12-03T04:36:58.898Z,22.93
2022-12-03T04:41:01.926Z,24.80
2022-12-03T04:45:05.268Z,24.20
2022-12-03T04:49:08.412Z,23.40
2022-12-03T04:53:12.920Z,24.30
2022-12-03T04:57:16.275Z,25.53
2022-12-03T05:01:19.380Z,24.07
2022-12-03T05:05:22.607Z,20.47
2022-12-03T05:09:27.232Z,24.20
2022-12-03T05:13:30.266Z,23.37
2022-12-03T05:17:33.481Z,23.87
2022-12-03T05:21:36.694Z,24.87
2022-12-03T05:25:41.477Z,24.00
2022-12-03T05:29:44.505Z,23.67
2022-12-03T05:33:47.509Z,24.03
2022-12-03T05:37:50.620Z,23.37
2022-12-03T05:42:12.464Z,24.60
2022-12-03T05:46:15.595Z,24.20
2022-12-03T05:50:18.752Z,23.57
2022-12-03T05:54:21.962Z,22.87
2022-12-03T05:58:26.498Z,23.10
2022-12-03T06:02:29.609Z,24.10
2022-12-03T06:06:32.758Z,24.40
2022-12-03T06:10:35.809Z,20.57
2022-12-03T06:14:40.419Z,20.93
2022-12-03T06:18:43.444Z,24.13
2022-12-03T06:22:46.937Z,23.07
2022-12-03T06:26:49.982Z,24.00
2022-12-03T06:30:54.658Z,23.90
2022-12-03T06:34:58.010Z,23.23
2022-12-03T06:39:01.043Z,23.43
2022-12-03T06:43:04.173Z,20.20
2022-12-03T06:47:08.635Z,25.70
2022-12-03T06:51:11.829Z,22.20
2022-12-03T06:55:14.952Z,24.53
2022-12-03T06:59:17.986Z,22.60
2022-12-03T07:03:22.747Z,20.73
2022-12-03T07:07:25.908Z,23.80
2022-12-03T07:11:40.179Z,28.10
2022-12-03T07:15:43.478Z,23.13
2022-12-03T07:19:48.402Z,23.27
2022-12-03T07:23:51.569Z,21.60
2022-12-03T07:27:54.693Z,22.53
2022-12-03T07:31:57.788Z,18.60
2022-12-03T07:36:02.185Z,22.27
2022-12-03T07:40:05.693Z,21.17
2022-12-03T07:44:14.303Z,21.37
2022-12-03T07:48:17.769Z,21.07
2022-12-03T07:52:22.438Z,21.07
2022-12-03T07:56:25.548Z,23.23
2022-12-03T08:00:28.725Z,17.27
2022-12-03T08:04:31.788Z,22.10
2022-12-03T08:08:36.370Z,24.70
2022-12-03T08:12:43.221Z,23.90
2022-12-03T08:16:48.927Z,24.80
2022-12-03T08:20:53.081Z,23.10
2022-12-03T08:24:59.193Z,21.90
2022-12-03T08:29:02.506Z,20.20
2022-12-03T08:33:17.306Z,23.60
2022-12-03T08:37:20.979Z,22.17
2022-12-03T08:41:39.375Z,17.37
2022-12-03T08:45:44.194Z,22.83
2022-12-03T08:49:52.824Z,21.60
2022-12-03T08:54:04.744Z,25.13
2022-12-03T08:58:19.468Z,24.20
2022-12-03T09:02:29.923Z,38.10
2022-12-03T09:06:33.093Z,25.27
2022-12-03T09:10:36.125Z,21.77
2022-12-03T09:14:40.893Z,20.80
2022-12-03T09:18:44.453Z,20.57
2022-12-03T09:22:47.611Z,21.03
2022-12-03T09:26:51.020Z,19.93
2022-12-03T09:30:55.429Z,20.53
2022-12-03T09:34:59.714Z,20.47
2022-12-03T09:39:02.818Z,18.97
2022-12-03T09:43:05.996Z,20.77
2022-12-03T09:47:10.591Z,19.97
2022-12-03T09:51:14.197Z,19.20
2022-12-03T09:55:20.049Z,18.30
2022-12-03T09:59:25.053Z,19.57
2022-12-03T10:03:31.470Z,20.40
2022-12-03T10:07:34.575Z,19.50
2022-12-03T10:11:38.146Z,19.07
2022-12-03T10:15:41.319Z,19.90
2022-12-03T10:19:45.878Z,17.60
2022-12-03T10:23:55.081Z,18.60
2022-12-03T10:28:01.216Z,19.30
2022-12-03T10:32:05.840Z,18.47
2022-12-03T10:36:22.560Z,18.83
2022-12-03T10:40:27.145Z,17.33
2022-12-03T10:44:30.660Z,16.60
2022-12-03T10:48:33.675Z,15.77
2022-12-03T10:52:38.696Z,17.23
2022-12-03T10:56:41.972Z,17.83
2022-12-03T11:00:45.238Z,17.43
2022-12-03T11:04:48.731Z,19.17
2022-12-03T11:08:57.870Z,17.90
2022-12-03T11:13:29.061Z,18.30
2022-12-03T11:17:50.386Z,16.03
2022-12-03T11:22:25.305Z,19.07
2022-12-03T11:27:06.917Z,18.03
2022-12-03T11:31:38.841Z,18.90
2022-12-03T11:36:13.240Z,16.80
2022-12-03T11:40:39.339Z,21.93
2022-12-03T11:44:42.839Z,20.33
2022-12-03T11:48:53.051Z,19.00
2022-12-03T11:53:00.280Z,14.63
2022-12-03T11:57:04.098Z,15.67
2022-12-03T12:01:09.274Z,17.53
2022-12-03T12:05:29.192Z,18.13
2022-12-03T12:09:53.191Z,17.53
2022-12-03T12:13:58.302Z,18.00
2022-12-03T12:18:34.440Z,18.03
2022-12-03T12:22:39.432Z,17.37
2022-12-03T12:26:51.645Z,16.27
2022-12-03T12:30:54.722Z,16.33
2022-12-03T12:35:01.529Z,16.53
2022-12-03T12:39:09.430Z,16.47
2022-12-03T12:43:24.414Z,17.13
2022-12-03T12:47:30.013Z,19.43
2022-12-03T12:51:33.438Z,20.27
2022-12-03T12:55:38.329Z,16.10
2022-12-03T12:59:41.621Z,16.67
2022-12-03T13:03:44.827Z,17.83
2022-12-03T13:07:48.328Z,16.37
2022-12-03T13:11:56.889Z,18.23
2022-12-03T13:16:08.240Z,17.10
2022-12-03T13:20:19.268Z,15.60
2022-12-03T13:24:33.215Z,15.77
2022-12-03T13:28:37.718Z,15.87
2022-12-03T13:32:43.615Z,17.47
2022-12-03T13:36:53.533Z,13.80
2022-12-03T13:41:03.237Z,14.00
2022-12-03T13:45:30.430Z,16.70
2022-12-03T13:49:33.653Z,15.87
2022-12-03T13:53:38.556Z,15.93
2022-12-03T13:57:41.633Z,14.03
2022-12-03T14:01:46.580Z,14.30
2022-12-03T14:05:49.849Z,14.47
2022-12-03T14:09:53.306Z,16.37
2022-12-03T14:14:04.509Z,15.83
2022-12-03T14:18:09.236Z,14.90
2022-12-03T14:22:12.691Z,15.07
2022-12-03T14:26:15.791Z,15.97
2022-12-03T14:30:19.204Z,16.43
2022-12-03T14:34:23.693Z,15.57
2022-12-03T14:38:26.975Z,17.33
2022-12-03T14:42:30.130Z,17.67
2022-12-03T14:46:33.268Z,16.90
2022-12-03T14:50:37.965Z,11.20
2022-12-03T14:54:42.661Z,12.83
2022-12-03T14:58:46.040Z,16.17
2022-12-03T15:02:49.262Z,15.20
2022-12-03T15:06:53.838Z,16.90
2022-12-03T15:10:57.045Z,16.63
2022-12-03T15:15:00.448Z,21.03
2022-12-03T15:19:03.870Z,17.87
2022-12-03T15:23:13.933Z,15.43
2022-12-03T15:27:17.592Z,16.53
2022-12-03T15:31:20.870Z,13.53
2022-12-03T15:35:24.499Z,16.33
2022-12-03T15:39:29.619Z,16.03
2022-12-03T15:43:32.778Z,16.10
2022-12-03T15:47:35.870Z,15.73
2022-12-03T15:51:39.127Z,13.90
2022-12-03T15:55:57.567Z,15.57
2022-12-03T16:00:00.954Z,16.43
2022-12-03T16:04:04.050Z,16.57
2022-12-03T16:08:07.254Z,16.27
2022-12-03T16:12:12.018Z,16.47
2022-12-03T16:16:15.241Z,17.40
2022-12-03T16:20:18.442Z,13.03
2022-12-03T16:24:21.631Z,18.13
2022-12-03T16:28:26.566Z,13.30
2022-12-03T16:32:29.819Z,15.07
2022-12-03T16:36:33.101Z,19.03
2022-12-03T16:40:36.254Z,15.30
2022-12-03T16:45:15.445Z,16.93
2022-12-03T16:49:18.678Z,13.70
2022-12-03T16:53:23.291Z,15.07
2022-12-03T16:57:33.099Z,12.63
2022-12-03T17:01:40.622Z,16.03
2022-12-03T17:05:43.878Z,18.60
2022-12-03T17:09:47.049Z,15.07
2022-12-03T17:13:50.136Z,15.73
2022-12-03T17:17:54.696Z,16.07
2022-12-03T17:22:01.243Z,20.43
2022-12-03T17:26:04.667Z,18.77
2022-12-03T17:30:09.291Z,18.73
2022-12-03T17:34:14.817Z,18.47
2022-12-03T17:38:17.907Z,15.93
2022-12-03T17:42:21.393Z,13.73
2022-12-03T17:46:24.646Z,12.03
2022-12-03T17:50:29.328Z,16.70
2022-12-03T17:54:49.347Z,19.83
2022-12-03T17:58:57.193Z,15.23
2022-12-03T18:03:00.704Z,19.43
2022-12-03T18:07:05.842Z,17.50
2022-12-03T18:11:08.952Z,17.03
2022-12-03T18:15:12.482Z,17.53
2022-12-03T18:19:15.595Z,17.97
2022-12-03T18:23:20.436Z,15.10
2022-12-03T18:27:23.647Z,15.87
2022-12-03T18:31:27.252Z,19.43
2022-12-03T18:35:31.005Z,19.30
2022-12-03T18:39:37.913Z,16.53
2022-12-03T18:43:43.415Z,18.37
2022-12-03T18:47:46.846Z,18.60
2022-12-03T18:51:54.447Z,17.27
2022-12-03T18:56:03.442Z,8.23
2022-12-03T19:00:13.221Z,16.67
2022-12-03T19:04:17.140Z,20.03
2022-12-03T19:08:20.429Z,19.43
2022-12-03T19:12:24.972Z,20.03
2022-12-03T19:16:28.371Z,15.63
2022-12-03T19:20:31.936Z,18.77
2022-12-03T19:24:35.151Z,16.67
2022-12-03T19:28:39.748Z,21.17
2022-12-03T19:32:42.801Z,16.83
2022-12-03T19:36:48.649Z,19.87
2022-12-03T19:40:59.928Z,18.00
2022-12-03T19:45:04.925Z,19.17
2022-12-03T19:49:08.019Z,16.93
2022-12-03T19:53:11.509Z,17.40
2022-12-03T19:57:19.677Z,15.00
2022-12-03T20:01:29.728Z,15.63
2022-12-03T20:05:37.151Z,17.77
2022-12-03T20:09:40.331Z,16.27
2022-12-03T20:13:43.972Z,18.53
2022-12-03T20:17:48.449Z,17.17
2022-12-03T20:21:51.535Z,15.53
2022-12-03T20:25:54.991Z,17.57
2022-12-03T20:29:58.261Z,15.93
2022-12-03T20:34:04.560Z,16.83
2022-12-03T20:38:07.695Z,9.33
2022-12-03T20:42:11.691Z,20.27
2022-12-03T20:46:17.147Z,17.43
2022-12-03T20:50:21.754Z,17.63
2022-12-03T20:54:24.868Z,19.57
2022-12-03T20:58:30.231Z,19.27
2022-12-03T21:02:33.581Z,18.40
2022-12-03T21:06:38.445Z,17.00
2022-12-03T21:10:46.115Z,19.40
2022-12-03T21:14:49.267Z,16.43
2022-12-03T21:18:52.390Z,14.17
2022-12-03T21:22:56.911Z,19.37
2022-12-03T21:27:00.152Z,19.73
2022-12-03T21:31:04.588Z,13.37
2022-12-03T21:35:08.352Z,18.40
2022-12-03T21:39:12.781Z,17.23
2022-12-03T21:43:16.299Z,17.50
2022-12-03T21:47:19.474Z,21.87
2022-12-03T21:51:22.878Z,19.30
2022-12-03T21:55:27.456Z,17.93
2022-12-03T21:59:30.494Z,17.67
2022-12-03T22:03:33.572Z,18.63
2022-12-03T22:07:37.722Z,21.63
2022-12-03T22:11:42.379Z,21.50
2022-12-03T22:15:45.522Z,17.93
2022-12-03T22:19:48.765Z,20.07
2022-12-03T22:23:51.778Z,19.13
2022-12-03T22:27:56.140Z,18.93
2022-12-03T22:31:59.476Z,17.00
2022-12-03T22:36:04.892Z,16.40
2022-12-03T22:40:08.862Z,19.83
2022-12-03T22:44:13.561Z,16.90
2022-12-03T22:48:16.660Z,19.50
2022-12-03T22:52:19.715Z,18.00
2022-12-03T22:56:23.642Z,15.13
2022-12-03T23:00:32.443Z,13.57
2022-12-03T23:04:35.564Z,17.93
2022-12-03T23:08:38.662Z,17.43
2022-12-03T23:12:41.778Z,15.27
2022-12-03T23:16:46.324Z,19.80
2022-12-03T23:20:51.543Z,19.20
2022-12-03T23:24:54.583Z,17.77
2022-12-03T23:28:57.981Z,12.97
2022-12-03T23:33:02.400Z,18.37
2022-12-03T23:37:05.463Z,19.27
2022-12-03T23:41:09.446Z,17.83
2022-12-03T23:45:17.569Z,13.97
2022-12-03T23:49:21.995Z,15.37
2022-12-03T23:53:25.110Z,15.13
2022-12-03T23:57:28.140Z,13.53
